createdAt,value
2022-11-07T04:00:55.876Z,96355.03
2022-11-07T04:03:22.399Z,96355.50
2022-11-07T04:05:48.877Z,96355.94
2022-11-07T04:08:15.543Z,96348.03
2022-11-07T04:10:42.066Z,96370.38
2022-11-07T04:13:28.033Z,96367.28
2022-11-07T04:16:29.791Z,96363.91
2022-11-07T04:18:57.156Z,96370.56
2022-11-07T04:21:23.627Z,96372.75
2022-11-07T04:23:50.150Z,96370.97
2022-11-07T04:26:35.577Z,96371.94
2022-11-07T04:29:02.030Z,96372.00
2022-11-07T04:31:28.494Z,96385.22
2022-11-07T04:33:55.135Z,96390.34
2022-11-07T04:36:21.789Z,96385.41
2022-11-07T04:38:48.256Z,96391.44
2022-11-07T04:41:23.174Z,96387.91
2022-11-07T04:43:50.567Z,96388.88
2022-11-07T04:46:17.158Z,96386.56
2022-11-07T04:48:44.616Z,96380.72
2022-11-07T04:51:21.354Z,96388.00
2022-11-07T04:53:47.892Z,96395.97
2022-11-07T04:56:14.384Z,96393.81
2022-11-07T04:58:40.833Z,96395.03
2022-11-07T05:01:07.261Z,96397.94
2022-11-07T05:03:38.864Z,96398.44
2022-11-07T05:06:11.967Z,96407.91
2022-11-07T05:08:38.410Z,96406.50
2022-11-07T05:11:05.080Z,96405.69
2022-11-07T05:13:31.520Z,96402.25
2022-11-07T05:15:58.056Z,96406.88
2022-11-07T05:18:25.123Z,96420.13
2022-11-07T05:20:51.593Z,96425.38
2022-11-07T05:23:22.084Z,96407.66
2022-11-07T05:25:53.302Z,96420.31
2022-11-07T05:28:31.171Z,96409.84
2022-11-07T05:31:03.018Z,96420.78
2022-11-07T05:33:29.809Z,96416.31
2022-11-07T05:35:56.264Z,96402.94
2022-11-07T05:38:22.893Z,96413.06
2022-11-07T05:40:49.375Z,96418.75
2022-11-07T05:43:16.353Z,96422.34
2022-11-07T05:45:43.170Z,96431.09
2022-11-07T05:48:11.965Z,96421.78
2022-11-07T05:50:39.572Z,96433.22
2022-11-07T05:53:06.933Z,96438.47
2022-11-07T05:55:33.451Z,96446.19
2022-11-07T05:58:05.692Z,96445.44
2022-11-07T06:00:33.411Z,96442.97
2022-11-07T06:03:00.576Z,96429.75
2022-11-07T06:05:27.882Z,96445.50
2022-11-07T06:07:54.562Z,96437.78
2022-11-07T06:10:21.288Z,96445.34
2022-11-07T06:12:49.480Z,96454.13
2022-11-07T06:15:19.012Z,96459.09
2022-11-07T06:17:45.435Z,96464.91
2022-11-07T06:20:11.917Z,96467.38
2022-11-07T06:22:38.403Z,96469.22
2022-11-07T06:25:05.271Z,96465.22
2022-11-07T06:27:31.823Z,96477.53
2022-11-07T06:29:58.290Z,96470.59
2022-11-07T06:32:24.775Z,96481.97
2022-11-07T06:34:51.768Z,96487.03
2022-11-07T06:37:18.193Z,96470.38
2022-11-07T06:39:44.657Z,96482.19
2022-11-07T06:42:11.153Z,96484.78
2022-11-07T06:44:37.639Z,96485.81
2022-11-07T06:47:04.292Z,96469.66
2022-11-07T06:49:30.727Z,96471.00
2022-11-07T06:51:57.315Z,96483.13
2022-11-07T06:54:23.773Z,96471.28
2022-11-07T06:56:50.241Z,96495.63
2022-11-07T06:59:16.765Z,96492.50
2022-11-07T07:01:43.346Z,96496.66
2022-11-07T07:04:11.447Z,96490.00
2022-11-07T07:06:38.743Z,96500.47
2022-11-07T07:09:06.992Z,96506.88
2022-11-07T07:11:37.547Z,96501.72
2022-11-07T07:14:10.259Z,96505.88
2022-11-07T07:16:38.150Z,96492.34
2022-11-07T07:19:04.664Z,96507.41
2022-11-07T07:21:31.109Z,96512.47
2022-11-07T07:23:57.621Z,96510.00
2022-11-07T07:26:24.063Z,96505.38
2022-11-07T07:28:50.508Z,96507.91
2022-11-07T07:31:16.895Z,96509.16
2022-11-07T07:33:45.100Z,96515.03
2022-11-07T07:36:17.840Z,96515.69
2022-11-07T07:38:47.381Z,96516.06
2022-11-07T07:41:14.074Z,96516.16
2022-11-07T07:43:40.766Z,96525.13
2022-11-07T07:46:08.724Z,96525.41
2022-11-07T07:48:35.574Z,96519.78
2022-11-07T07:51:02.143Z,96530.88
2022-11-07T07:53:28.659Z,96525.16
2022-11-07T07:55:59.401Z,96526.69
2022-11-07T07:58:27.147Z,96526.00
2022-11-07T08:00:54.984Z,96512.16
2022-11-07T08:03:21.515Z,96522.75
2022-11-07T08:05:53.740Z,96522.53
2022-11-07T08:08:20.299Z,96526.50
2022-11-07T08:10:46.835Z,96524.97
2022-11-07T08:13:13.395Z,96516.31
2022-11-07T08:15:40.035Z,96512.81
2022-11-07T08:18:06.595Z,96517.03
2022-11-07T08:20:33.096Z,96527.88
2022-11-07T08:23:04.548Z,96512.84
2022-11-07T08:25:31.411Z,96519.03
2022-11-07T08:27:58.308Z,96521.41
2022-11-07T08:30:26.853Z,96522.84
2022-11-07T08:32:53.531Z,96526.59
2022-11-07T08:35:20.097Z,96515.25
2022-11-07T08:37:46.558Z,96524.81
2022-11-07T08:40:13.249Z,96530.53
2022-11-07T08:42:39.811Z,96520.81
2022-11-07T08:45:07.035Z,96510.41
2022-11-07T08:47:33.493Z,96517.50
2022-11-07T08:50:00.038Z,96519.13
2022-11-07T08:52:26.487Z,96520.94
2022-11-07T08:54:52.939Z,96519.84
2022-11-07T08:57:19.567Z,96526.19
2022-11-07T08:59:46.040Z,96516.13
2022-11-07T09:03:08.407Z,96521.22
2022-11-07T09:04:59.734Z,96521.09
2022-11-07T09:07:26.195Z,96530.78
2022-11-07T09:09:52.665Z,96533.69
2022-11-07T09:12:19.144Z,96531.06
2022-11-07T09:14:45.643Z,96539.50
2022-11-07T09:17:12.177Z,96524.16
2022-11-07T09:19:38.654Z,96537.13
2022-11-07T09:22:05.103Z,96541.66
2022-11-07T09:24:31.578Z,96541.53
2022-11-07T09:26:58.045Z,96541.22
2022-11-07T09:29:24.487Z,96549.50
2022-11-07T09:31:50.949Z,96546.78
2022-11-07T09:34:17.455Z,96541.91
2022-11-07T09:36:43.902Z,96533.69
2022-11-07T09:39:10.350Z,96547.81
2022-11-07T09:41:56.436Z,96550.31
2022-11-07T09:44:38.234Z,96546.97
2022-11-07T09:47:20.759Z,96552.44
2022-11-07T09:49:49.331Z,96557.38
2022-11-07T09:52:24.478Z,96550.13
2022-11-07T09:54:55.788Z,96548.38
2022-11-07T09:57:23.217Z,96538.41
2022-11-07T10:00:00.636Z,96538.09
2022-11-07T10:02:33.497Z,96550.81
2022-11-07T10:05:03.190Z,96551.75
2022-11-07T10:07:45.913Z,96546.13
2022-11-07T10:10:37.458Z,96547.53
2022-11-07T10:13:31.307Z,96547.47
2022-11-07T10:16:15.266Z,96542.66
2022-11-07T10:19:01.028Z,96538.81
2022-11-07T10:21:53.516Z,96539.63
2022-11-07T10:24:32.048Z,96546.19
2022-11-07T10:26:58.663Z,96540.13
2022-11-07T10:29:29.611Z,96540.19
2022-11-07T10:32:12.421Z,96537.19
2022-11-07T10:34:50.193Z,96536.47
2022-11-07T10:37:21.108Z,96519.69
2022-11-07T10:39:47.542Z,96529.50
2022-11-07T10:42:21.219Z,96521.22
2022-11-07T10:44:48.903Z,96506.72
2022-11-07T10:47:20.537Z,96518.66
2022-11-07T10:50:21.368Z,96516.13
2022-11-07T10:53:19.014Z,96517.56
2022-11-07T10:55:48.267Z,96516.72
2022-11-07T10:58:21.243Z,96510.41
2022-11-07T11:01:07.657Z,96518.59
2022-11-07T11:03:45.204Z,96512.06
2022-11-07T11:06:32.781Z,96512.53
2022-11-07T11:08:59.586Z,96504.28
2022-11-07T11:11:33.129Z,96499.41
2022-11-07T11:14:16.592Z,96507.38
2022-11-07T11:16:43.451Z,96494.44
2022-11-07T11:19:41.320Z,96498.28
2022-11-07T11:22:19.446Z,96498.47
2022-11-07T11:24:46.346Z,96490.03
2022-11-07T11:27:15.051Z,96499.22
2022-11-07T11:29:56.438Z,96490.22
2022-11-07T11:32:29.974Z,96491.91
2022-11-07T11:35:23.764Z,96490.00
2022-11-07T11:37:58.552Z,96480.88
2022-11-07T11:40:25.302Z,96482.75
2022-11-07T11:43:05.241Z,96482.03
2022-11-07T11:45:40.692Z,96480.31
2022-11-07T11:48:32.914Z,96481.09
2022-11-07T11:51:01.995Z,96486.69
2022-11-07T11:53:28.999Z,96482.44
2022-11-07T11:56:07.315Z,96475.88
2022-11-07T11:58:53.243Z,96482.91
2022-11-07T12:01:44.402Z,96482.34
2022-11-07T12:04:43.224Z,96475.94
2022-11-07T12:08:00.653Z,96474.81
2022-11-07T12:10:44.289Z,96469.19
2022-11-07T12:13:42.515Z,96467.94
2022-11-07T12:16:39.744Z,96467.28
2022-11-07T12:19:35.607Z,96471.97
2022-11-07T12:22:34.246Z,96455.94
2022-11-07T12:25:16.810Z,96453.91
2022-11-07T12:28:22.090Z,96454.91
2022-11-07T12:31:25.508Z,96456.44
2022-11-07T12:34:22.446Z,96448.50
2022-11-07T12:37:18.136Z,96448.84
2022-11-07T12:40:10.691Z,96442.91
2022-11-07T12:43:00.578Z,96444.78
2022-11-07T12:45:32.780Z,96431.50
2022-11-07T12:48:33.283Z,96435.59
2022-11-07T12:51:06.523Z,96440.91
2022-11-07T12:53:56.043Z,96436.47
2022-11-07T12:56:32.151Z,96429.97
2022-11-07T12:59:01.120Z,96431.09
2022-11-07T13:01:36.741Z,96433.41
2022-11-07T13:04:12.485Z,96431.84
2022-11-07T13:06:46.835Z,96430.38
2022-11-07T13:09:28.375Z,96428.06
2022-11-07T13:12:21.131Z,96442.41
2022-11-07T13:14:48.186Z,96427.28
2022-11-07T13:17:17.210Z,96437.09
2022-11-07T13:19:46.109Z,96434.63
2022-11-07T13:22:15.565Z,96436.09
2022-11-07T13:25:10.547Z,96440.22
2022-11-07T13:27:43.085Z,96429.94
2022-11-07T13:30:15.511Z,96433.13
2022-11-07T13:32:43.979Z,96428.25
2022-11-07T13:35:37.667Z,96432.50
2022-11-07T13:38:23.252Z,96423.84
2022-11-07T13:40:53.832Z,96427.34
2022-11-07T13:43:34.372Z,96425.50
2022-11-07T13:46:05.883Z,96431.09
2022-11-07T13:48:48.950Z,96420.00
2022-11-07T13:51:35.511Z,96424.81
2022-11-07T13:54:30.645Z,96425.13
2022-11-07T13:57:04.191Z,96419.13
2022-11-07T13:59:55.237Z,96424.88
2022-11-07T14:02:29.439Z,96427.03
2022-11-07T14:05:17.201Z,96427.78
2022-11-07T14:07:55.378Z,96419.72
2022-11-07T14:10:26.545Z,96425.59
2022-11-07T14:13:02.731Z,96434.56
2022-11-07T14:15:29.772Z,96437.22
2022-11-07T14:17:56.914Z,96434.09
2022-11-07T14:20:23.899Z,96431.78
2022-11-07T14:22:54.886Z,96432.13
2022-11-07T14:25:30.494Z,96435.84
2022-11-07T14:27:57.367Z,96445.69
2022-11-07T14:30:26.127Z,96446.38
2022-11-07T14:33:01.221Z,96453.16
2022-11-07T14:35:32.326Z,96448.94
2022-11-07T14:38:08.852Z,96445.78
2022-11-07T14:40:36.825Z,96448.44
2022-11-07T14:43:04.332Z,96451.41
2022-11-07T14:46:10.112Z,96451.31
2022-11-07T14:48:24.536Z,96450.44
2022-11-07T14:50:51.118Z,96456.41
2022-11-07T14:53:24.696Z,96451.03
2022-11-07T14:55:58.363Z,96451.78
2022-11-07T14:58:28.016Z,96441.13
2022-11-07T15:00:57.289Z,96444.84
2022-11-07T15:03:31.880Z,96434.50
2022-11-07T15:05:58.860Z,96431.06
2022-11-07T15:08:37.464Z,96426.09
2022-11-07T15:11:26.539Z,96438.56
2022-11-07T15:13:53.668Z,96414.84
2022-11-07T15:16:22.695Z,96432.59
2022-11-07T15:18:59.356Z,96431.34
2022-11-07T15:21:32.986Z,96433.13
2022-11-07T15:24:20.647Z,96435.63
2022-11-07T15:27:02.041Z,96429.03
2022-11-07T15:29:36.333Z,96427.00
2022-11-07T15:32:15.530Z,96426.88
2022-11-07T15:35:03.952Z,96424.47
2022-11-07T15:37:29.888Z,96424.31
2022-11-07T15:39:56.368Z,96428.66
2022-11-07T15:42:22.818Z,96428.53
2022-11-07T15:44:49.306Z,96409.38
2022-11-07T15:47:19.590Z,96430.88
2022-11-07T15:49:46.847Z,96430.34
2022-11-07T15:52:13.587Z,96426.03
2022-11-07T15:54:40.088Z,96427.72
2022-11-07T15:57:08.094Z,96422.28
2022-11-07T15:59:36.888Z,96421.75
2022-11-07T16:02:04.537Z,96423.47
2022-11-07T16:04:32.562Z,96423.28
2022-11-07T16:07:00.731Z,96418.94
2022-11-07T16:09:31.068Z,96425.13
2022-11-07T16:11:57.613Z,96426.34
2022-11-07T16:17:18.817Z,96429.28
2022-11-07T16:19:45.557Z,96432.88
2022-11-07T16:22:14.746Z,96437.56
2022-11-07T16:24:41.259Z,96437.06
2022-11-07T16:27:15.679Z,96438.00
2022-11-07T16:29:44.141Z,96440.03
2022-11-07T16:32:17.950Z,96433.72
2022-11-07T16:34:45.257Z,96449.41
2022-11-07T16:37:12.383Z,96436.34
2022-11-07T16:39:38.839Z,96435.38
2022-11-07T16:42:05.326Z,96437.50
2022-11-07T16:44:31.815Z,96447.63
2022-11-07T16:46:58.389Z,96432.94
2022-11-07T16:49:31.560Z,96445.81
2022-11-07T16:51:58.229Z,96447.59
2022-11-07T16:54:25.502Z,96443.66
2022-11-07T16:56:52.840Z,96451.47
2022-11-07T16:59:22.595Z,96447.88
2022-11-07T17:01:50.778Z,96456.34
2022-11-07T17:04:17.547Z,96451.31
2022-11-07T17:06:47.938Z,96454.06
2022-11-07T17:09:16.920Z,96452.03
2022-11-07T17:11:44.637Z,96449.09
2022-11-07T17:14:11.256Z,96451.94
2022-11-07T17:16:38.043Z,96453.28
2022-11-07T17:19:05.610Z,96449.44
2022-11-07T17:21:36.398Z,96445.06
2022-11-07T17:24:04.120Z,96421.41
2022-11-07T17:26:34.561Z,96427.44
2022-11-07T17:29:01.930Z,96428.06
2022-11-07T17:31:28.529Z,96422.06
2022-11-07T17:33:55.048Z,96448.16
2022-11-07T17:36:30.820Z,96458.38
2022-11-07T17:39:02.583Z,96453.63
2022-11-07T17:41:29.955Z,96424.59
2022-11-07T17:43:58.219Z,96397.94
2022-11-07T17:46:27.344Z,96424.91
2022-11-07T17:48:55.345Z,96455.06
2022-11-07T17:51:23.457Z,96460.31
2022-11-07T17:53:49.938Z,96443.66
2022-11-07T17:56:18.877Z,96463.38
2022-11-07T17:58:52.302Z,96460.88
2022-11-07T18:01:21.392Z,96465.25
2022-11-07T18:03:52.276Z,96456.03
2022-11-07T18:06:23.302Z,96462.47
2022-11-07T18:08:55.505Z,96462.78
2022-11-07T18:11:25.379Z,96451.81
2022-11-07T18:13:53.515Z,96450.06
2022-11-07T18:16:22.461Z,96449.69
2022-11-07T18:18:49.321Z,96455.41
2022-11-07T18:21:16.388Z,96465.94
2022-11-07T18:23:43.443Z,96438.91
2022-11-07T18:26:11.256Z,96473.91
2022-11-07T18:28:40.148Z,96448.41
2022-11-07T18:31:12.236Z,96460.13
2022-11-07T18:33:39.106Z,96470.16
2022-11-07T18:36:08.394Z,96442.97
2022-11-07T18:38:35.012Z,96471.66
2022-11-07T18:41:10.961Z,96457.69
2022-11-07T18:43:38.337Z,96482.28
2022-11-07T18:46:08.823Z,96461.66
2022-11-07T18:48:36.613Z,96456.78
2022-11-07T18:51:04.109Z,96473.59
2022-11-07T18:53:31.111Z,96476.09
2022-11-07T18:56:02.292Z,96447.91
2022-11-07T18:58:29.701Z,96404.56
2022-11-07T19:01:01.995Z,96458.47
2022-11-07T19:03:28.525Z,96459.63
2022-11-07T19:06:00.702Z,96390.53
2022-11-07T19:08:32.015Z,96449.09
2022-11-07T19:11:00.418Z,96401.78
2022-11-07T19:13:27.766Z,96426.38
2022-11-07T19:15:54.724Z,96430.59
2022-11-07T19:18:21.817Z,96432.75
2022-11-07T19:20:48.712Z,96409.25
2022-11-07T19:23:15.642Z,96445.69
2022-11-07T19:25:42.611Z,96430.69
2022-11-07T19:28:09.792Z,96458.78
2022-11-07T19:30:36.668Z,96439.50
2022-11-07T19:33:03.761Z,96465.63
2022-11-07T19:35:31.015Z,96435.13
2022-11-07T19:37:58.104Z,96443.44
2022-11-07T19:40:24.918Z,96453.19
2022-11-07T19:42:51.730Z,96467.84
2022-11-07T19:45:19.474Z,96462.59
2022-11-07T19:47:46.208Z,96470.50
2022-11-07T19:50:12.672Z,96450.28
2022-11-07T19:52:39.200Z,96455.19
2022-11-07T19:55:05.990Z,96408.00
2022-11-07T19:57:32.488Z,96463.41
2022-11-07T19:59:58.927Z,96462.16
2022-11-07T20:02:32.695Z,96479.88
2022-11-07T20:05:00.529Z,96457.25
2022-11-07T20:07:26.967Z,96438.50
2022-11-07T20:09:54.886Z,96446.03
2022-11-07T20:12:21.540Z,96452.94
2022-11-07T20:14:48.001Z,96430.50
2022-11-07T20:17:14.482Z,96475.59
2022-11-07T20:19:40.947Z,96468.38
2022-11-07T20:22:07.424Z,96439.75
2022-11-07T20:24:33.890Z,96440.81
2022-11-07T20:27:00.347Z,96449.13
2022-11-07T20:29:26.856Z,96399.31
2022-11-07T20:31:53.356Z,96435.19
2022-11-07T20:34:20.504Z,96480.59
2022-11-07T20:36:49.046Z,96471.53
2022-11-07T20:39:15.472Z,96458.59
2022-11-07T20:41:42.555Z,96483.88
2022-11-07T20:44:12.682Z,96453.69
2022-11-07T20:46:41.843Z,96422.13
2022-11-07T20:49:11.209Z,96469.41
2022-11-07T20:51:37.925Z,96488.34
2022-11-07T20:54:04.689Z,96443.25
2022-11-07T20:56:31.671Z,96419.06
2022-11-07T20:58:58.405Z,96493.59
2022-11-07T21:01:35.877Z,96481.47
2022-11-07T21:04:13.245Z,96439.25
2022-11-07T21:06:40.027Z,96493.91
2022-11-07T21:09:06.832Z,96457.59
2022-11-07T21:11:33.983Z,96481.78
2022-11-07T21:14:00.612Z,96450.50
2022-11-07T21:16:27.809Z,96460.53
2022-11-07T21:18:55.525Z,96475.00
2022-11-07T21:21:24.983Z,96460.50
2022-11-07T21:23:51.900Z,96471.28
2022-11-07T21:26:28.586Z,96472.81
2022-11-07T21:28:55.807Z,96464.97
2022-11-07T21:31:27.099Z,96497.03
2022-11-07T21:33:53.526Z,96477.91
2022-11-07T21:36:23.399Z,96461.59
2022-11-07T21:38:50.028Z,96447.56
2022-11-07T21:41:17.010Z,96490.38
2022-11-07T21:43:43.600Z,96464.34
2022-11-07T21:46:12.910Z,96461.28
2022-11-07T21:48:40.545Z,96460.97
2022-11-07T21:51:18.298Z,96473.44
2022-11-07T21:53:45.785Z,96487.47
2022-11-07T21:56:22.593Z,96476.03
2022-11-07T21:58:51.287Z,96459.59
2022-11-07T22:01:19.812Z,96397.81
2022-11-07T22:06:34.729Z,96427.22
2022-11-07T22:09:01.390Z,96405.03
2022-11-07T22:11:27.949Z,96461.44
2022-11-07T22:13:54.466Z,96473.13
2022-11-07T22:16:22.655Z,96443.72
2022-11-07T22:18:49.541Z,96485.44
2022-11-07T22:21:19.830Z,96479.91
2022-11-07T22:23:46.830Z,96481.44
2022-11-07T22:26:22.435Z,96433.06
2022-11-07T22:28:49.905Z,96408.41
